Huvudsida
METAR-TAF:

METAR-TAF

Flygplatser :

Andøya flygplats. Andenes

Andøya, Norge

latitud: 69-18N, longitud: 016-09E, höjd: 1 m

Aktuellt väderrapport

Denna rapport gjordes för 18 minuter sedan, klockan 17:20 UTC
Vind 7 kt från ost
Temperatur 11°C
Fuktighet 87%
Tryck 968 hPa
Sikt 10 km eller mer

METAR: ENAN 221720Z AUTO 08007KT 9999 FEW008/// BKN059/// OVC074/// 11/09 Q0968

Tid: 19:38 (17:38 UTC)

Väderprognos

Prognos gäller från 22 kl. 12 UTC till 23 kl. 12 UTC
Vind 12 kt från ost/sydost
Sikt 10 km eller mer
Brutna moln på en höjd av 4000 ft
Sannolikhet 40% :
Temporärt
från 22 kl. 18 UTC till 23 kl. 12 UTC
Få moln på en höjd av 2000 ft, Cumulonimbus.
regnskurar
Blir
från 22 kl. 19 UTC till 22 kl. 22 UTC
Vind 8 kt från syd/sydväst
Blir
från 23 kl. 09 UTC till 23 kl. 11 UTC
Vind 15 kt från väst

TAF: ENAN 2212/2312 12012KT 9999 BKN040 PROB40 TEMPO 2218/2312 SHRA FEW020CB BECMG 2219/2222 21008KT BECMG 2309/2311 27015KT

Aktuella väderrapporter och prognoser från 4000 flygplatser (METAR- och TAF-rapporter).

De tillgängliga stationerna syns som gula och röda prickar på kartan.

För musen över prickarna för att se namnen på stationerna.

Klicka sedan för att få väderrapporter och prognoser.

För att ändra kartan: Klicka på de gröna knapparna med ett svart kors på för att zooma in; den gröna knappen med ett streck på för att zooma ut; eller på de gröna pilarna för angränsande kartor.


METAR-TAF: